createdAt,value
2022-12-23T00:01:51.705Z,17.33
2022-12-23T00:04:18.653Z,19.70
2022-12-23T00:06:45.890Z,21.23
2022-12-23T00:09:13.093Z,19.23
2022-12-23T00:12:00.095Z,18.37
2022-12-23T00:14:45.983Z,18.03
2022-12-23T00:17:22.935Z,19.83
2022-12-23T00:19:50.878Z,23.20
2022-12-23T00:22:17.775Z,23.60
2022-12-23T00:24:44.645Z,24.43
2022-12-23T00:27:11.575Z,14.77
2022-12-23T00:29:38.530Z,26.23
2022-12-23T00:32:05.930Z,25.13
2022-12-23T00:34:32.802Z,17.90
2022-12-23T00:36:59.684Z,24.30
2022-12-23T00:40:06.545Z,20.40
2022-12-23T00:42:52.629Z,23.13
2022-12-23T00:45:19.603Z,22.07
2022-12-23T00:48:06.479Z,14.83
2022-12-23T00:50:36.448Z,25.17
2022-12-23T00:53:04.204Z,22.60
2022-12-23T00:55:31.248Z,20.00
2022-12-23T00:57:58.751Z,20.27
2022-12-23T01:00:44.322Z,16.33
2022-12-23T01:03:32.997Z,19.80
2022-12-23T01:06:04.061Z,14.27
2022-12-23T01:08:30.993Z,24.77
2022-12-23T01:11:02.879Z,15.50
2022-12-23T01:13:30.070Z,18.50
2022-12-23T01:16:06.746Z,18.87
2022-12-23T01:18:36.595Z,24.13
2022-12-23T01:21:09.085Z,27.93
2022-12-23T01:23:37.029Z,20.00
2022-12-23T01:26:06.141Z,21.97
2022-12-23T01:28:34.001Z,24.00
2022-12-23T01:31:02.463Z,22.43
2022-12-23T01:33:29.600Z,25.43
2022-12-23T01:36:04.573Z,17.60
2022-12-23T01:38:31.734Z,17.67
2022-12-23T01:40:58.987Z,21.30
2022-12-23T01:43:46.054Z,21.83
2022-12-23T01:46:13.081Z,18.73
2022-12-23T01:48:41.780Z,13.17
2022-12-23T01:51:20.184Z,17.37
2022-12-23T01:53:52.228Z,19.70
2022-12-23T01:56:24.175Z,16.03
2022-12-23T01:58:53.163Z,14.03
2022-12-23T02:01:39.502Z,19.27
2022-12-23T02:04:09.616Z,24.13
2022-12-23T02:06:58.628Z,18.30
2022-12-23T02:09:34.985Z,18.20
2022-12-23T02:12:17.232Z,17.67
2022-12-23T02:15:15.040Z,21.57
2022-12-23T02:17:41.880Z,17.87
2022-12-23T02:20:39.862Z,24.80
2022-12-23T02:23:32.832Z,21.87
2022-12-23T02:26:46.582Z,34.03
2022-12-23T02:29:37.886Z,19.50
2022-12-23T02:32:10.908Z,23.73
2022-12-23T02:34:49.725Z,21.33
2022-12-23T02:37:33.180Z,26.00
2022-12-23T02:40:28.436Z,24.40
2022-12-23T02:43:30.775Z,20.87
2022-12-23T02:46:06.764Z,29.10
2022-12-23T02:48:44.551Z,19.93
2022-12-23T02:51:15.890Z,30.30
2022-12-23T02:54:05.108Z,27.43
2022-12-23T02:56:35.209Z,23.50
2022-12-23T02:59:22.977Z,22.00
2022-12-23T03:01:50.869Z,25.13
2022-12-23T03:04:18.017Z,20.70
2022-12-23T03:06:48.493Z,26.40
2022-12-23T03:09:36.189Z,25.50
2022-12-23T03:12:32.068Z,26.47
2022-12-23T03:15:14.547Z,20.00
2022-12-23T03:18:05.273Z,23.17
2022-12-23T03:20:50.628Z,23.13
2022-12-23T03:23:32.797Z,22.00
2022-12-23T03:26:33.425Z,27.67
2022-12-23T03:29:15.793Z,24.10
2022-12-23T03:31:44.119Z,28.47
2022-12-23T03:34:18.764Z,27.63
2022-12-23T03:36:56.787Z,24.30
2022-12-23T03:39:29.782Z,25.30
2022-12-23T03:42:05.803Z,28.33
2022-12-23T03:44:51.784Z,23.97
2022-12-23T03:47:35.764Z,30.47
2022-12-23T03:50:11.362Z,27.70
2022-12-23T03:52:44.120Z,27.57
2022-12-23T03:55:22.145Z,32.43
2022-12-23T03:57:56.049Z,32.13
2022-12-23T04:00:23.133Z,35.80
2022-12-23T04:03:01.375Z,24.17
2022-12-23T04:05:30.341Z,26.20
2022-12-23T04:08:14.753Z,26.97
2022-12-23T04:10:42.287Z,27.57
2022-12-23T04:13:09.263Z,24.87
2022-12-23T04:15:41.399Z,24.47
2022-12-23T04:18:10.368Z,25.17
2022-12-23T04:20:37.441Z,28.93
2022-12-23T04:23:04.569Z,24.17
2022-12-23T04:25:31.472Z,22.10
2022-12-23T04:27:58.356Z,28.30
2022-12-23T04:30:29.630Z,23.57
2022-12-23T04:32:58.562Z,21.53
2022-12-23T04:35:25.449Z,26.83
2022-12-23T04:37:52.309Z,29.97
2022-12-23T04:40:19.410Z,21.33
2022-12-23T04:42:46.264Z,28.27
2022-12-23T04:45:13.233Z,24.20
2022-12-23T04:47:40.723Z,23.67
2022-12-23T04:50:08.658Z,23.57
2022-12-23T04:52:35.565Z,25.17
2022-12-23T04:55:02.488Z,27.23
2022-12-23T04:57:29.399Z,27.90
2022-12-23T04:59:56.294Z,24.43
2022-12-23T05:02:23.393Z,20.53
2022-12-23T05:04:50.707Z,22.70
2022-12-23T05:07:17.640Z,25.13
2022-12-23T05:09:44.603Z,30.37
2022-12-23T05:12:12.019Z,28.30
2022-12-23T05:14:38.984Z,20.60
2022-12-23T05:17:07.856Z,22.50
2022-12-23T05:19:35.169Z,22.63
2022-12-23T05:22:02.499Z,22.57
2022-12-23T05:24:29.344Z,22.80
2022-12-23T05:27:00.136Z,30.07
2022-12-23T05:29:27.641Z,20.43
2022-12-23T05:31:54.581Z,22.50
2022-12-23T05:34:21.934Z,30.83
2022-12-23T05:36:48.943Z,25.37
2022-12-23T05:39:16.246Z,28.10
2022-12-23T05:41:43.194Z,21.57
2022-12-23T05:44:10.198Z,21.77
2022-12-23T05:46:37.164Z,20.00
2022-12-23T05:49:04.083Z,26.40
2022-12-23T05:51:31.022Z,21.13
2022-12-23T05:53:57.964Z,20.70
2022-12-23T05:56:25.018Z,23.23
2022-12-23T05:58:52.309Z,24.20
2022-12-23T06:01:19.231Z,22.47
2022-12-23T06:03:46.295Z,22.17
2022-12-23T06:06:13.422Z,22.07
2022-12-23T06:08:40.392Z,21.67
2022-12-23T06:11:07.307Z,22.57
2022-12-23T06:13:34.258Z,19.57
2022-12-23T06:16:01.598Z,21.20
2022-12-23T06:18:28.603Z,25.03
2022-12-23T06:20:55.887Z,22.70
2022-12-23T06:23:23.024Z,24.20
2022-12-23T06:25:50.082Z,20.90
2022-12-23T06:28:17.619Z,22.10
2022-12-23T06:30:44.501Z,21.13
2022-12-23T06:33:11.526Z,21.53
2022-12-23T06:35:38.539Z,19.37
2022-12-23T06:38:10.332Z,28.20
2022-12-23T06:40:38.802Z,23.23
2022-12-23T06:43:05.662Z,19.90
2022-12-23T06:45:32.631Z,24.20
2022-12-23T06:47:59.612Z,27.60
2022-12-23T06:50:26.499Z,21.37
2022-12-23T06:52:53.804Z,23.77
2022-12-23T06:55:20.631Z,21.80
2022-12-23T06:57:47.517Z,24.20
2022-12-23T07:00:15.098Z,21.37
2022-12-23T07:02:42.205Z,25.13
2022-12-23T07:05:09.600Z,21.97
2022-12-23T07:07:36.962Z,22.97
2022-12-23T07:10:04.242Z,23.97
2022-12-23T07:12:31.130Z,26.43
2022-12-23T07:14:58.016Z,25.13
2022-12-23T07:17:25.207Z,26.07
2022-12-23T07:19:52.765Z,21.03
2022-12-23T07:22:21.058Z,19.97
2022-12-23T07:24:47.928Z,32.47
2022-12-23T07:27:14.853Z,21.20
2022-12-23T07:29:42.271Z,27.40
2022-12-23T07:32:09.198Z,27.50
2022-12-23T07:34:36.637Z,34.53
2022-12-23T07:37:03.523Z,31.23
2022-12-23T07:39:30.918Z,28.67
2022-12-23T07:44:44.945Z,26.00
2022-12-23T07:47:11.882Z,27.00
2022-12-23T07:49:38.808Z,29.20
2022-12-23T07:52:05.723Z,27.67
2022-12-23T07:54:32.607Z,28.93
2022-12-23T07:56:59.726Z,24.93
2022-12-23T07:59:27.616Z,25.77
2022-12-23T08:01:54.629Z,27.93
2022-12-23T08:04:21.895Z,23.23
2022-12-23T08:06:49.135Z,22.17
2022-12-23T08:09:16.017Z,18.97
2022-12-23T08:11:43.572Z,24.07
2022-12-23T08:14:10.573Z,19.63
2022-12-23T08:16:43.397Z,15.03
2022-12-23T08:19:10.959Z,16.43
2022-12-23T08:21:37.887Z,19.70
2022-12-23T08:24:04.970Z,26.13
2022-12-23T08:26:32.970Z,16.67
2022-12-23T08:29:00.983Z,15.50
2022-12-23T08:31:32.039Z,16.83
2022-12-23T08:34:00.618Z,15.80
2022-12-23T08:36:33.840Z,20.13
2022-12-23T08:39:07.220Z,21.73
2022-12-23T08:41:37.584Z,22.23
2022-12-23T08:44:04.671Z,20.30
2022-12-23T08:46:31.760Z,19.40
2022-12-23T08:48:58.801Z,22.47
2022-12-23T08:51:27.080Z,27.60
2022-12-23T08:54:01.066Z,35.43
2022-12-23T08:56:31.539Z,34.53
2022-12-23T08:58:58.972Z,33.83
2022-12-23T09:01:29.377Z,37.57
2022-12-23T09:03:57.185Z,42.20
2022-12-23T09:06:29.954Z,41.87
2022-12-23T09:08:58.093Z,41.10
2022-12-23T09:11:27.771Z,36.07
2022-12-23T09:13:56.105Z,39.20
2022-12-23T09:16:24.080Z,48.90
2022-12-23T09:18:51.221Z,36.43
2022-12-23T09:21:20.753Z,35.87
2022-12-23T09:23:48.255Z,41.40
2022-12-23T09:26:33.821Z,41.37
2022-12-23T09:29:00.869Z,43.63
2022-12-23T09:31:35.896Z,41.77
2022-12-23T09:34:04.115Z,36.30
2022-12-23T09:36:31.235Z,36.60
2022-12-23T09:38:58.862Z,34.90
2022-12-23T09:41:34.705Z,36.13
2022-12-23T09:44:32.467Z,44.37
2022-12-23T09:47:02.476Z,37.30
2022-12-23T09:49:30.250Z,42.10
2022-12-23T09:52:06.787Z,38.00
2022-12-23T09:54:45.963Z,32.70
2022-12-23T09:57:23.284Z,39.17
2022-12-23T10:00:16.881Z,41.90
2022-12-23T10:03:08.714Z,35.57
2022-12-23T10:06:14.354Z,34.83
2022-12-23T10:08:50.407Z,40.17
2022-12-23T10:11:20.272Z,45.17
2022-12-23T10:13:51.420Z,38.07
2022-12-23T10:16:25.763Z,35.70
2022-12-23T10:19:03.538Z,36.90
2022-12-23T10:21:32.181Z,43.50
2022-12-23T10:24:05.146Z,46.43
2022-12-23T10:26:37.025Z,36.53
2022-12-23T10:29:19.390Z,42.33
2022-12-23T10:32:17.184Z,33.23
2022-12-23T10:34:58.326Z,38.27
2022-12-23T10:37:34.210Z,37.87
2022-12-23T10:40:17.737Z,33.03
2022-12-23T10:42:50.882Z,30.63
2022-12-23T10:45:23.773Z,35.57
2022-12-23T10:48:19.965Z,30.67
2022-12-23T10:51:04.435Z,40.43
2022-12-23T10:53:37.413Z,24.83
2022-12-23T10:56:06.802Z,26.40
2022-12-23T10:58:42.232Z,31.17
2022-12-23T11:01:18.909Z,26.33
2022-12-23T11:04:04.032Z,41.03
2022-12-23T11:06:37.638Z,27.50
2022-12-23T11:09:06.298Z,28.10
2022-12-23T11:11:54.967Z,26.13
2022-12-23T11:14:31.452Z,32.43
2022-12-23T11:16:58.493Z,28.27
2022-12-23T11:19:26.822Z,32.70
2022-12-23T11:21:59.548Z,27.27
2022-12-23T11:24:39.586Z,21.10
2022-12-23T11:27:14.051Z,23.87
2022-12-23T11:29:48.109Z,26.50
2022-12-23T11:32:25.302Z,25.27
2022-12-23T11:34:52.529Z,26.07
2022-12-23T11:37:42.317Z,31.13
2022-12-23T11:40:25.840Z,24.83
2022-12-23T11:43:14.617Z,27.63
2022-12-23T11:45:41.757Z,32.60
2022-12-23T11:48:28.486Z,29.27
2022-12-23T11:51:03.706Z,30.03
2022-12-23T11:53:31.415Z,30.90
2022-12-23T11:56:11.692Z,27.70
2022-12-23T11:58:50.168Z,27.10
2022-12-23T12:01:20.387Z,23.97
2022-12-23T12:03:55.694Z,23.03
2022-12-23T12:06:23.399Z,24.17
2022-12-23T12:08:53.293Z,24.13
2022-12-23T12:11:44.411Z,21.43
2022-12-23T12:14:24.788Z,18.73
2022-12-23T12:17:29.720Z,20.70
2022-12-23T12:20:02.814Z,23.47
2022-12-23T12:22:45.105Z,23.70
2022-12-23T12:25:20.796Z,27.50
2022-12-23T12:28:00.644Z,29.27
2022-12-23T12:30:34.780Z,25.50
2022-12-23T12:33:13.989Z,26.23
2022-12-23T12:35:43.757Z,27.80
2022-12-23T12:38:33.983Z,18.87
2022-12-23T12:41:29.023Z,20.43
2022-12-23T12:44:16.342Z,20.60
2022-12-23T12:47:15.868Z,25.73
2022-12-23T12:50:00.110Z,22.57
2022-12-23T12:52:28.727Z,18.80
2022-12-23T12:55:01.468Z,20.23
2022-12-23T12:57:29.728Z,22.93
2022-12-23T13:00:05.690Z,22.40
2022-12-23T13:03:04.682Z,19.87
2022-12-23T13:05:54.148Z,22.43
2022-12-23T13:08:52.312Z,18.60
2022-12-23T13:11:23.349Z,19.17
2022-12-23T13:14:17.701Z,28.30
2022-12-23T13:16:54.382Z,48.77
2022-12-23T13:19:32.011Z,24.50
2022-12-23T13:22:11.626Z,28.50
2022-12-23T13:25:05.651Z,29.50
2022-12-23T13:27:46.629Z,23.33
2022-12-23T13:30:23.688Z,24.60
2022-12-23T13:33:07.079Z,21.40
2022-12-23T13:36:06.168Z,24.03
2022-12-23T13:38:52.436Z,26.07
2022-12-23T13:41:41.550Z,22.07
2022-12-23T13:44:18.217Z,17.40
2022-12-23T13:47:13.526Z,14.90
2022-12-23T13:50:01.866Z,16.20
2022-12-23T13:52:37.992Z,18.00
2022-12-23T13:55:39.143Z,15.93
2022-12-23T13:58:18.512Z,17.17
2022-12-23T14:00:45.933Z,16.33
2022-12-23T14:03:23.666Z,15.63
2022-12-23T14:05:52.819Z,18.43
2022-12-23T14:08:19.749Z,15.33
2022-12-23T14:11:00.784Z,10.37
2022-12-23T14:13:30.629Z,16.90
2022-12-23T14:16:16.415Z,9.70
2022-12-23T14:19:04.070Z,12.77
2022-12-23T14:21:46.253Z,14.00
2022-12-23T14:24:50.737Z,18.00
2022-12-23T14:27:40.452Z,10.97
2022-12-23T14:30:16.644Z,11.27
2022-12-23T14:33:06.228Z,8.43
2022-12-23T14:35:38.525Z,13.27
2022-12-23T14:38:15.684Z,11.30
2022-12-23T14:40:42.747Z,9.60
2022-12-23T14:43:19.095Z,14.57
2022-12-23T14:45:51.614Z,10.43
2022-12-23T14:48:33.892Z,16.67
2022-12-23T14:51:21.478Z,9.00
2022-12-23T14:53:52.178Z,10.00
2022-12-23T14:56:19.057Z,7.83
2022-12-23T14:58:52.351Z,8.10
2022-12-23T15:01:34.336Z,9.83
2022-12-23T15:04:26.558Z,11.00
2022-12-23T15:07:04.523Z,15.13
2022-12-23T15:09:37.361Z,14.07
2022-12-23T15:12:15.939Z,9.60
2022-12-23T15:15:05.134Z,9.43
2022-12-23T15:17:34.721Z,16.43
2022-12-23T15:20:10.312Z,16.13
2022-12-23T15:22:38.371Z,12.00
2022-12-23T15:25:06.353Z,12.33
2022-12-23T15:27:36.412Z,17.33
2022-12-23T15:30:03.854Z,11.70
2022-12-23T15:32:31.044Z,14.53
2022-12-23T15:35:05.851Z,13.53
2022-12-23T15:37:33.830Z,14.33
2022-12-23T15:40:09.924Z,12.30
2022-12-23T15:42:39.593Z,13.50
2022-12-23T15:45:29.757Z,13.50
2022-12-23T15:47:56.400Z,16.20
2022-12-23T15:50:23.643Z,13.20
2022-12-23T15:52:50.691Z,17.60
2022-12-23T15:55:25.238Z,12.70
2022-12-23T15:57:52.676Z,13.83
2022-12-23T16:00:22.657Z,13.00
2022-12-23T16:03:01.146Z,10.47
2022-12-23T16:05:35.995Z,12.40
2022-12-23T16:08:28.494Z,11.33
2022-12-23T16:11:13.812Z,14.10
2022-12-23T16:13:47.322Z,16.13
2022-12-23T16:16:19.741Z,12.80
2022-12-23T16:18:47.796Z,30.67
2022-12-23T16:21:15.260Z,15.93
2022-12-23T16:23:50.153Z,16.57
2022-12-23T16:26:16.870Z,16.07
2022-12-23T16:28:49.650Z,19.50
2022-12-23T16:31:18.592Z,23.30
2022-12-23T16:33:50.062Z,16.23
2022-12-23T16:36:28.991Z,18.20
2022-12-23T16:38:55.970Z,15.47
2022-12-23T16:41:22.925Z,16.97
2022-12-23T16:43:52.799Z,17.87
2022-12-23T16:46:21.685Z,19.50
2022-12-23T16:48:59.218Z,19.40
2022-12-23T16:51:27.972Z,16.07
2022-12-23T16:53:56.973Z,18.70
2022-12-23T16:56:27.867Z,18.00
2022-12-23T16:58:54.545Z,15.17
2022-12-23T17:01:37.039Z,14.80
2022-12-23T17:04:04.269Z,19.10
2022-12-23T17:06:31.229Z,17.77
2022-12-23T17:08:57.937Z,19.87
2022-12-23T17:11:34.412Z,23.03
2022-12-23T17:14:05.592Z,22.23
2022-12-23T17:16:33.781Z,21.17
2022-12-23T17:19:00.582Z,23.23
2022-12-23T17:21:31.188Z,21.60
2022-12-23T17:24:08.954Z,23.17
2022-12-23T17:26:35.772Z,19.90
2022-12-23T17:29:03.983Z,25.27
2022-12-23T17:31:32.624Z,22.37
2022-12-23T17:33:59.481Z,21.80
2022-12-23T17:36:26.193Z,24.27
2022-12-23T17:38:53.498Z,23.60
2022-12-23T17:41:29.815Z,23.60
2022-12-23T17:43:56.773Z,23.10
2022-12-23T17:46:24.260Z,27.17
2022-12-23T17:48:51.495Z,19.67
2022-12-23T17:51:23.269Z,26.37
2022-12-23T17:53:56.816Z,22.63
2022-12-23T17:56:26.375Z,20.87
2022-12-23T17:58:53.547Z,19.20
2022-12-23T18:01:29.684Z,20.90
2022-12-23T18:03:58.345Z,19.63
2022-12-23T18:06:27.400Z,16.57
2022-12-23T18:08:54.658Z,17.33
2022-12-23T18:11:35.917Z,14.80
2022-12-23T18:14:03.548Z,21.20
2022-12-23T18:16:30.842Z,19.50
2022-12-23T18:18:57.598Z,19.13
2022-12-23T18:21:27.096Z,21.50
2022-12-23T18:23:57.791Z,22.13
2022-12-23T18:26:25.012Z,15.97
2022-12-23T18:28:55.923Z,25.07
2022-12-23T18:31:24.451Z,18.97
2022-12-23T18:33:51.807Z,20.23
2022-12-23T18:36:28.983Z,29.13
2022-12-23T18:38:57.228Z,19.63
2022-12-23T18:41:26.247Z,23.33
2022-12-23T18:43:53.575Z,32.20
2022-12-23T18:46:21.564Z,24.97
2022-12-23T18:48:48.420Z,21.70
2022-12-23T18:51:17.539Z,25.57
2022-12-23T18:53:45.512Z,26.30
2022-12-23T18:56:17.022Z,22.80
2022-12-23T18:58:43.701Z,29.40
2022-12-23T19:01:15.475Z,31.80
2022-12-23T19:03:43.560Z,28.87
2022-12-23T19:06:14.278Z,28.37
2022-12-23T19:08:42.311Z,32.60
2022-12-23T19:11:15.257Z,29.47
2022-12-23T19:13:42.033Z,22.47
2022-12-23T19:16:13.947Z,25.30
2022-12-23T19:18:40.754Z,45.50
2022-12-23T19:21:09.178Z,36.13
2022-12-23T19:23:38.773Z,29.30
2022-12-23T19:26:06.177Z,38.43
2022-12-23T19:28:33.771Z,30.87
2022-12-23T19:31:00.404Z,28.40
2022-12-23T19:33:27.198Z,33.80
2022-12-23T19:35:53.807Z,34.67
2022-12-23T19:38:20.465Z,27.33
2022-12-23T19:40:57.680Z,32.07
2022-12-23T19:43:24.365Z,32.73
2022-12-23T19:46:03.694Z,25.67
2022-12-23T19:48:30.953Z,26.00
2022-12-23T19:51:02.277Z,34.67
2022-12-23T19:53:29.474Z,34.47
2022-12-23T19:56:05.358Z,33.83
2022-12-23T19:58:34.357Z,36.50
2022-12-23T20:01:15.248Z,30.80
2022-12-23T20:03:42.845Z,38.93
2022-12-23T20:06:21.961Z,29.80
2022-12-23T20:08:48.937Z,37.23
2022-12-23T20:11:21.570Z,27.83
2022-12-23T20:13:55.209Z,29.33
2022-12-23T20:16:23.192Z,30.63
2022-12-23T20:18:50.112Z,23.37
2022-12-23T20:21:17.091Z,39.00
2022-12-23T20:23:43.761Z,27.47
2022-12-23T20:26:12.445Z,28.27
2022-12-23T20:28:39.141Z,30.47
2022-12-23T20:31:20.721Z,32.40
2022-12-23T20:33:48.728Z,32.13
2022-12-23T20:36:17.326Z,30.00
2022-12-23T20:38:46.508Z,30.50
2022-12-23T20:41:16.010Z,28.13
2022-12-23T20:43:46.106Z,27.13
2022-12-23T20:46:21.831Z,26.83
2022-12-23T20:48:49.210Z,33.17
2022-12-23T20:51:25.976Z,30.20
2022-12-23T20:53:55.332Z,30.90
2022-12-23T20:56:27.388Z,19.77
2022-12-23T20:58:55.117Z,32.03
2022-12-23T21:01:25.581Z,30.07
2022-12-23T21:03:52.966Z,28.53
2022-12-23T21:06:20.627Z,23.63
2022-12-23T21:08:47.718Z,24.33
2022-12-23T21:11:14.997Z,26.20
2022-12-23T21:13:42.137Z,30.03
2022-12-23T21:16:11.387Z,26.83
2022-12-23T21:18:43.439Z,27.33
2022-12-23T21:21:11.716Z,27.93
2022-12-23T21:23:40.464Z,27.23
2022-12-23T21:26:12.291Z,26.97
2022-12-23T21:28:40.493Z,27.80
2022-12-23T21:31:08.481Z,24.83
2022-12-23T21:33:40.410Z,24.73
2022-12-23T21:36:08.774Z,26.80
2022-12-23T21:38:39.152Z,21.37
2022-12-23T21:41:09.687Z,22.60
2022-12-23T21:43:37.125Z,21.07
2022-12-23T21:46:10.143Z,26.70
2022-12-23T21:48:38.267Z,28.37
2022-12-23T21:51:21.251Z,24.93
2022-12-23T21:53:51.084Z,34.53
2022-12-23T21:56:30.227Z,30.20
2022-12-23T21:58:58.956Z,24.77
2022-12-23T22:01:26.707Z,18.93
2022-12-23T22:03:55.395Z,29.07
2022-12-23T22:06:24.682Z,19.30
2022-12-23T22:08:52.753Z,24.87
2022-12-23T22:11:22.615Z,27.40
2022-12-23T22:13:50.559Z,30.73
2022-12-23T22:16:23.029Z,33.10
2022-12-23T22:18:51.228Z,30.07
2022-12-23T22:21:20.417Z,28.27
2022-12-23T22:23:48.698Z,39.10
2022-12-23T22:26:24.515Z,28.57
2022-12-23T22:28:52.253Z,27.77
2022-12-23T22:31:34.276Z,22.23
2022-12-23T22:34:01.918Z,38.47
2022-12-23T22:36:29.327Z,21.17
2022-12-23T22:38:58.489Z,26.13
2022-12-23T22:41:28.099Z,17.47
2022-12-23T22:43:55.634Z,25.60
2022-12-23T22:46:22.983Z,30.70
2022-12-23T22:48:50.824Z,28.90
2022-12-23T22:51:21.234Z,28.83
2022-12-23T22:53:49.193Z,25.53
2022-12-23T22:56:17.879Z,33.47
2022-12-23T22:58:45.270Z,27.20
2022-12-23T23:01:24.508Z,26.63
2022-12-23T23:03:57.576Z,24.50
2022-12-23T23:06:33.538Z,32.13
2022-12-23T23:09:01.100Z,22.20
2022-12-23T23:11:28.922Z,26.53
2022-12-23T23:13:56.499Z,37.50
2022-12-23T23:16:25.443Z,23.23
2022-12-23T23:18:52.956Z,30.73
2022-12-23T23:21:20.368Z,34.17
2022-12-23T23:23:47.731Z,33.97
2022-12-23T23:26:15.797Z,23.33
2022-12-23T23:28:43.592Z,19.80
2022-12-23T23:33:58.310Z,22.00
2022-12-23T23:36:25.615Z,24.83
2022-12-23T23:38:52.718Z,26.10
2022-12-23T23:41:23.199Z,29.80
2022-12-23T23:43:51.187Z,26.63
2022-12-23T23:46:18.529Z,37.40
2022-12-23T23:48:45.494Z,32.97
2022-12-23T23:51:13.157Z,23.57
2022-12-23T23:53:40.392Z,27.33
2022-12-23T23:56:09.246Z,21.70
2022-12-23T23:58:37.465Z,42.90
